Portada
METAR-TAF:

METAR-TAF

Aeroports :

Txengdu, Xina

latitud: 30-40N, longitud: 104-01E, altitud: 508 m

Observació

L'informe es va fer fa 47 minuts, a les 01:00 UTC
Vent 4 kt del Sud-Oest
Temperatura 14°C
Humitat 88%
Pressió 1014 hPa
Visibilitat: 4500 m
Escasses núvols a una alçada de 5000 ft
boirina

METAR: ZUUU 160100Z 22002MPS 4500 BR FEW050 14/12 Q1014 NOSIG

Hora: 09:47 (01:47 UTC)

Pronòstic

L'informe es va fer fa 5 hores i 27 minuts, a les 20:20 UTC
Pronòstic vàlid del 16 a les 00 UTC al 16 a les 24 UTC
Vent 6 kt del Sud/Sud-Oest
Visibilitat: 3500 m
Núvols disperses a una alçada de 5000 ft
boirina
Temporalment
l' 16 a les 00 UTC al 16 a les 02 UTC
Visibilitat: 2300 m

TAF: ZUUU 152020Z 1600/1624 20003MPS 3500 BR SCT050 TX17/1607Z TN12/1623Z TEMPO 1600/1602 2300

Observacions i pronòstics meteorològics de més de 4000 aeroports (METAR i TAF).

Les estacions disponibles són els punts grocs i vermells al mapa.

Posi el ratolí al punt desitjat per veure el nom de l'estació.

Feu clic per veure les observacions i els pronòstics meteorològics.

Per canviar el mapa: feu clic els botons verds amb una creu de color negre per apropar; al botó verd amb un guió per allunyar la imatge; o en les fletxes verdes per a mapes adjacents.


METAR-TAF: